Time;durP1;ratioP1;P1;durP2;ratioP2;P2;SDS_P1;SDS_P2;PMS_P1;PMS_P2;Temp;Humidity;BMP_temperature;BMP_pressure;BME280_temperature;BME280_humidity;BME280_pressure;Samples;Min_cycle;Max_cycle;Signal;HPM_P1;HPM_P2
2019/08/11 00:00:07;;;;;;;2.13;1.50;;;;;;;23.50;58.20;100723.44;;;;-51
2019/08/11 00:03:07;;;;;;;1.53;1.40;;;;;;;23.51;58.21;100724.31;;;;-52
2019/08/11 00:06:07;;;;;;;2.02;1.58;;;;;;;23.50;58.22;100726.48;;;;-51
2019/08/11 00:09:07;;;;;;;1.85;1.36;;;;;;;23.50;58.21;100725.88;;;;-50
2019/08/11 00:12:07;;;;;;;1.71;1.49;;;;;;;23.49;58.23;100723.91;;;;-52
2019/08/11 00:15:06;;;;;;;2.48;1.51;;;;;;;23.49;58.21;100719.03;;;;-51
2019/08/11 00:18:07;;;;;;;3.81;1.56;;;;;;;23.49;58.22;100714.98;;;;-50
2019/08/11 00:21:07;;;;;;;1.59;1.40;;;;;;;23.48;58.18;100712.86;;;;-51
2019/08/11 00:24:07;;;;;;;2.30;1.51;;;;;;;23.48;58.20;100717.91;;;;-50
2019/08/11 00:27:07;;;;;;;1.99;1.57;;;;;;;23.48;58.22;100720.45;;;;-50
2019/08/11 00:30:07;;;;;;;1.63;1.48;;;;;;;23.48;58.19;100715.63;;;;-51
2019/08/11 00:33:07;;;;;;;2.38;1.51;;;;;;;23.47;58.21;100713.23;;;;-50
2019/08/11 00:36:07;;;;;;;1.95;1.44;;;;;;;23.46;58.21;100713.97;;;;-51
2019/08/11 00:39:07;;;;;;;2.75;1.60;;;;;;;23.47;58.20;100718.45;;;;-51
2019/08/11 00:42:07;;;;;;;2.44;1.57;;;;;;;23.47;58.22;100716.37;;;;-52
2019/08/11 00:45:07;;;;;;;1.57;1.46;;;;;;;23.46;58.19;100712.45;;;;-50
2019/08/11 00:48:07;;;;;;;1.93;1.53;;;;;;;23.46;58.22;100713.47;;;;-52
2019/08/11 00:51:07;;;;;;;1.91;1.47;;;;;;;23.46;58.19;100713.54;;;;-51
2019/08/11 00:54:07;;;;;;;1.79;1.50;;;;;;;23.46;58.18;100711.17;;;;-50
2019/08/11 00:57:07;;;;;;;1.92;1.32;;;;;;;23.46;58.18;100707.80;;;;-50
2019/08/11 01:00:07;;;;;;;1.59;1.47;;;;;;;23.45;58.18;100710.13;;;;-51
2019/08/11 01:03:07;;;;;;;2.01;1.58;;;;;;;23.44;58.19;100710.88;;;;-51
2019/08/11 01:06:07;;;;;;;2.46;1.59;;;;;;;23.45;58.18;100712.59;;;;-51
2019/08/11 01:09:07;;;;;;;2.25;1.51;;;;;;;23.44;58.20;100718.97;;;;-51
2019/08/11 01:12:07;;;;;;;1.63;1.51;;;;;;;23.44;58.18;100717.86;;;;-50
2019/08/11 01:15:07;;;;;;;1.40;1.30;;;;;;;23.44;58.20;100720.31;;;;-51
2019/08/11 01:18:07;;;;;;;1.79;1.56;;;;;;;23.44;58.15;100715.16;;;;-52
2019/08/11 01:21:07;;;;;;;2.02;1.43;;;;;;;23.44;58.20;100713.30;;;;-52
2019/08/11 01:24:07;;;;;;;1.43;1.31;;;;;;;23.43;58.19;100706.02;;;;-52
2019/08/11 01:27:07;;;;;;;1.98;1.50;;;;;;;23.43;58.18;100703.42;;;;-52
2019/08/11 01:30:07;;;;;;;1.89;1.50;;;;;;;23.43;58.18;100699.72;;;;-53
2019/08/11 01:33:06;;;;;;;2.40;1.47;;;;;;;23.43;58.16;100700.12;;;;-53
2019/08/11 01:36:07;;;;;;;1.94;1.47;;;;;;;23.42;58.17;100708.95;;;;-51
2019/08/11 01:39:07;;;;;;;1.65;1.51;;;;;;;23.43;58.17;100702.48;;;;-51
2019/08/11 01:42:07;;;;;;;1.50;1.40;;;;;;;23.42;58.17;100694.86;;;;-52
2019/08/11 01:45:07;;;;;;;2.45;1.51;;;;;;;23.41;58.19;100689.30;;;;-51
2019/08/11 01:48:07;;;;;;;1.60;1.50;;;;;;;23.41;58.18;100687.69;;;;-51
2019/08/11 01:51:07;;;;;;;1.94;1.47;;;;;;;23.41;58.16;100692.41;;;;-51
2019/08/11 01:54:07;;;;;;;1.58;1.41;;;;;;;23.41;58.17;100697.46;;;;-52
2019/08/11 01:57:07;;;;;;;1.67;1.50;;;;;;;23.41;58.18;100695.67;;;;-51
2019/08/11 02:00:07;;;;;;;1.50;1.40;;;;;;;23.40;58.18;100697.27;;;;-52
2019/08/11 02:03:07;;;;;;;1.58;1.45;;;;;;;23.40;58.19;100695.41;;;;-51
2019/08/11 02:06:47;;;;;;;1.65;1.50;;;;;;;23.40;58.19;100689.41;;;;-50
2019/08/11 02:09:07;;;;;;;1.75;1.61;;;;;;;23.40;58.17;100690.34;;;;-51
2019/08/11 02:12:07;;;;;;;1.59;1.45;;;;;;;23.39;58.15;100689.14;;;;-51
2019/08/11 02:15:07;;;;;;;1.60;1.50;;;;;;;23.39;58.16;100688.80;;;;-51
2019/08/11 02:18:07;;;;;;;1.85;1.40;;;;;;;23.39;58.17;100685.43;;;;-50
2019/08/11 02:21:07;;;;;;;1.52;1.42;;;;;;;23.38;58.16;100679.33;;;;-50
2019/08/11 02:24:07;;;;;;;1.51;1.39;;;;;;;23.38;58.16;100679.33;;;;-51
2019/08/11 02:27:07;;;;;;;1.71;1.51;;;;;;;23.38;58.19;100678.48;;;;-50
2019/08/11 02:30:07;;;;;;;1.85;1.50;;;;;;;23.38;58.18;100670.23;;;;-52
2019/08/11 02:33:07;;;;;;;1.57;1.43;;;;;;;23.38;58.19;100674.17;;;;-50
2019/08/11 02:36:07;;;;;;;2.07;1.51;;;;;;;23.37;58.18;100676.88;;;;-50
2019/08/11 02:39:07;;;;;;;1.51;1.41;;;;;;;23.37;58.18;100678.05;;;;-51
2019/08/11 02:42:07;;;;;;;1.65;1.47;;;;;;;23.37;58.17;100673.73;;;;-51
2019/08/11 02:45:06;;;;;;;1.57;1.41;;;;;;;23.37;58.19;100670.20;;;;-52
2019/08/11 02:48:07;;;;;;;2.32;1.51;;;;;;;23.36;58.17;100671.17;;;;-51
2019/08/11 02:51:07;;;;;;;1.46;1.36;;;;;;;23.37;58.15;100680.48;;;;-51
2019/08/11 02:54:07;;;;;;;1.57;1.47;;;;;;;23.36;58.17;100677.58;;;;-52
2019/08/11 02:57:07;;;;;;;1.64;1.52;;;;;;;23.36;58.17;100676.91;;;;-51
2019/08/11 03:00:07;;;;;;;1.79;1.47;;;;;;;23.35;58.19;100674.17;;;;-51
2019/08/11 03:03:06;;;;;;;1.65;1.50;;;;;;;23.35;58.16;100679.40;;;;-51
2019/08/11 03:06:06;;;;;;;1.91;1.50;;;;;;;23.35;58.17;100673.67;;;;-51
2019/08/11 03:09:07;;;;;;;1.93;1.51;;;;;;;23.35;58.17;100664.34;;;;-51
2019/08/11 03:12:07;;;;;;;1.59;1.49;;;;;;;23.35;58.16;100663.39;;;;-51
2019/08/11 03:15:07;;;;;;;2.47;1.51;;;;;;;23.34;58.20;100661.17;;;;-50
2019/08/11 03:18:07;;;;;;;1.59;1.49;;;;;;;23.35;58.19;100665.65;;;;-51
2019/08/11 03:21:07;;;;;;;1.82;1.51;;;;;;;23.35;58.15;100664.23;;;;-50
2019/08/11 03:24:07;;;;;;;1.61;1.50;;;;;;;23.34;58.16;100667.06;;;;-51
2019/08/11 03:27:07;;;;;;;1.98;1.51;;;;;;;23.34;58.12;100665.48;;;;-51
2019/08/11 03:30:07;;;;;;;1.75;1.51;;;;;;;23.34;58.14;100660.66;;;;-51
2019/08/11 03:33:07;;;;;;;1.59;1.49;;;;;;;23.33;58.17;100659.45;;;;-51
2019/08/11 03:36:07;;;;;;;1.98;1.50;;;;;;;23.33;58.18;100660.30;;;;-50
2019/08/11 03:39:07;;;;;;;1.61;1.51;;;;;;;23.33;58.15;100672.46;;;;-50
2019/08/11 03:42:07;;;;;;;2.24;1.47;;;;;;;23.33;58.15;100677.92;;;;-51
2019/08/11 03:45:07;;;;;;;1.67;1.43;;;;;;;23.33;58.15;100677.02;;;;-51
2019/08/11 03:48:07;;;;;;;1.75;1.51;;;;;;;23.32;58.14;100678.50;;;;-51
2019/08/11 03:51:07;;;;;;;1.77;1.41;;;;;;;23.33;58.17;100681.13;;;;-50
2019/08/11 03:54:07;;;;;;;1.55;1.45;;;;;;;23.32;58.18;100684.19;;;;-51
2019/08/11 03:57:07;;;;;;;1.60;1.50;;;;;;;23.32;58.16;100685.20;;;;-52
2019/08/11 04:00:07;;;;;;;1.53;1.43;;;;;;;23.32;58.17;100693.16;;;;-50
2019/08/11 04:03:07;;;;;;;1.53;1.40;;;;;;;23.32;58.16;100695.98;;;;-52
2019/08/11 04:06:07;;;;;;;1.55;1.41;;;;;;;23.32;58.18;100698.02;;;;-50
2019/08/11 04:09:07;;;;;;;2.25;1.57;;;;;;;23.31;58.19;100694.95;;;;-50
2019/08/11 04:12:07;;;;;;;1.57;1.47;;;;;;;23.30;58.15;100696.30;;;;-51
2019/08/11 04:15:07;;;;;;;1.63;1.35;;;;;;;23.31;58.14;100695.72;;;;-52
2019/08/11 04:18:07;;;;;;;1.46;1.36;;;;;;;23.30;58.18;100695.92;;;;-51
2019/08/11 04:21:06;;;;;;;1.49;1.39;;;;;;;23.30;58.14;100694.91;;;;-52
2019/08/11 04:24:07;;;;;;;1.50;1.40;;;;;;;23.30;58.15;100696.80;;;;-51
2019/08/11 04:27:06;;;;;;;2.25;1.61;;;;;;;23.30;58.12;100695.48;;;;-52
2019/08/11 04:30:07;;;;;;;1.50;1.40;;;;;;;23.30;58.13;100697.87;;;;-52
2019/08/11 04:33:07;;;;;;;2.06;1.58;;;;;;;23.29;58.15;100695.08;;;;-51
2019/08/11 04:36:07;;;;;;;1.65;1.41;;;;;;;23.30;58.14;100691.37;;;;-51
2019/08/11 04:39:07;;;;;;;1.68;1.53;;;;;;;23.29;58.14;100697.81;;;;-51
2019/08/11 04:42:06;;;;;;;1.40;1.30;;;;;;;23.29;58.17;100696.67;;;;-51
2019/08/11 04:45:06;;;;;;;1.60;1.49;;;;;;;23.29;58.12;100692.80;;;;-50
2019/08/11 04:48:06;;;;;;;1.65;1.55;;;;;;;23.29;58.13;100693.09;;;;-52
2019/08/11 04:51:07;;;;;;;2.11;1.50;;;;;;;23.28;58.13;100697.75;;;;-51
2019/08/11 04:54:07;;;;;;;1.59;1.41;;;;;;;23.28;58.13;100700.84;;;;-51
2019/08/11 04:57:07;;;;;;;1.66;1.50;;;;;;;23.28;58.14;100702.77;;;;-50
2019/08/11 05:00:07;;;;;;;1.53;1.43;;;;;;;23.28;58.14;100704.02;;;;-51
2019/08/11 05:03:07;;;;;;;1.71;1.57;;;;;;;23.28;58.12;100706.55;;;;-51
2019/08/11 05:06:07;;;;;;;1.50;1.40;;;;;;;23.28;58.11;100704.96;;;;-51
2019/08/11 05:09:06;;;;;;;2.97;1.46;;;;;;;23.28;58.09;100707.25;;;;-50
2019/08/11 05:12:07;;;;;;;1.67;1.57;;;;;;;23.27;58.10;100707.55;;;;-51
2019/08/11 05:15:07;;;;;;;1.65;1.55;;;;;;;23.27;58.11;100705.60;;;;-51
2019/08/11 05:18:07;;;;;;;1.72;1.51;;;;;;;23.27;58.12;100706.17;;;;-51
2019/08/11 05:21:07;;;;;;;1.50;1.40;;;;;;;23.27;58.12;100713.52;;;;-50
2019/08/11 05:24:06;;;;;;;1.58;1.40;;;;;;;23.28;58.14;100727.71;;;;-51
2019/08/11 05:27:07;;;;;;;1.60;1.50;;;;;;;23.27;58.13;100727.68;;;;-51
2019/08/11 05:30:06;;;;;;;5.00;1.94;;;;;;;23.18;56.34;100728.49;;;;-50
2019/08/11 05:33:07;;;;;;;5.71;2.96;;;;;;;22.88;54.88;100725.61;;;;-50
2019/08/11 05:36:07;;;;;;;5.50;2.93;;;;;;;22.72;54.70;100721.37;;;;-51
2019/08/11 05:39:07;;;;;;;8.03;2.90;;;;;;;22.58;55.18;100722.89;;;;-50
2019/08/11 05:42:07;;;;;;;9.29;3.27;;;;;;;22.47;55.35;100717.18;;;;-51
2019/08/11 05:45:07;;;;;;;6.61;3.33;;;;;;;22.43;55.66;100715.22;;;;-52
2019/08/11 05:48:07;;;;;;;7.15;3.25;;;;;;;22.39;55.93;100716.65;;;;-52
2019/08/11 05:51:07;;;;;;;5.87;3.10;;;;;;;22.32;55.79;100710.91;;;;-52
2019/08/11 05:54:07;;;;;;;7.54;3.28;;;;;;;22.27;55.82;100706.69;;;;-52
2019/08/11 05:57:07;;;;;;;7.21;3.11;;;;;;;22.25;55.92;100705.66;;;;-52
2019/08/11 06:00:07;;;;;;;6.83;3.34;;;;;;;22.25;56.15;100706.84;;;;-52
2019/08/11 06:03:06;;;;;;;7.09;3.27;;;;;;;22.24;56.15;100703.95;;;;-52
2019/08/11 06:06:07;;;;;;;7.33;3.36;;;;;;;22.20;56.29;100702.76;;;;-53
2019/08/11 06:09:07;;;;;;;7.25;3.18;;;;;;;22.18;56.62;100700.12;;;;-50
2019/08/11 06:12:07;;;;;;;7.69;3.03;;;;;;;22.18;56.61;100698.00;;;;-50
2019/08/11 06:15:06;;;;;;;5.69;2.79;;;;;;;22.19;56.65;100701.71;;;;-52
2019/08/11 06:18:07;;;;;;;6.61;3.03;;;;;;;22.20;56.76;100696.83;;;;-53
2019/08/11 06:21:07;;;;;;;7.21;3.35;;;;;;;22.24;56.69;100688.80;;;;-52
2019/08/11 06:24:06;;;;;;;6.82;3.47;;;;;;;22.26;56.73;100686.02;;;;-52
2019/08/11 06:27:06;;;;;;;6.65;3.13;;;;;;;22.28;56.44;100686.12;;;;-51
2019/08/11 06:30:07;;;;;;;5.51;3.13;;;;;;;22.29;56.32;100689.36;;;;-52
2019/08/11 06:33:07;;;;;;;5.65;3.11;;;;;;;22.31;56.76;100695.39;;;;-52
2019/08/11 06:36:06;;;;;;;6.49;3.11;;;;;;;22.31;56.74;100700.27;;;;-51
2019/08/11 06:39:06;;;;;;;6.85;3.08;;;;;;;22.33;56.76;100701.52;;;;-50
2019/08/11 06:42:07;;;;;;;7.23;3.41;;;;;;;22.34;56.78;100694.32;;;;-50
2019/08/11 06:45:07;;;;;;;8.11;3.23;;;;;;;22.36;56.81;100701.16;;;;-50
2019/08/11 06:48:07;;;;;;;4.87;2.83;;;;;;;22.41;56.96;100697.54;;;;-48
2019/08/11 06:51:07;;;;;;;7.62;3.18;;;;;;;22.40;56.50;100695.38;;;;-50
2019/08/11 06:54:06;;;;;;;9.31;3.29;;;;;;;22.42;56.75;100692.02;;;;-51
2019/08/11 06:57:07;;;;;;;8.37;3.17;;;;;;;22.44;56.82;100685.02;;;;-50
2019/08/11 07:00:07;;;;;;;7.81;2.92;;;;;;;22.46;56.90;100694.35;;;;-52
2019/08/11 07:03:07;;;;;;;6.09;2.91;;;;;;;22.48;56.84;100689.71;;;;-50
2019/08/11 07:06:07;;;;;;;6.31;3.04;;;;;;;22.52;56.80;100688.27;;;;-59
2019/08/11 07:09:07;;;;;;;8.28;3.04;;;;;;;22.56;56.67;100688.72;;;;-60
2019/08/11 07:12:07;;;;;;;7.11;3.16;;;;;;;22.60;56.31;100685.93;;;;-51
2019/08/11 07:15:06;;;;;;;5.39;3.11;;;;;;;22.62;56.18;100683.38;;;;-59
2019/08/11 07:18:06;;;;;;;5.55;3.02;;;;;;;22.66;55.98;100682.07;;;;-50
2019/08/11 07:21:07;;;;;;;6.89;3.19;;;;;;;22.68;55.46;100671.56;;;;-51
2019/08/11 07:24:07;;;;;;;7.91;3.09;;;;;;;22.69;55.92;100669.65;;;;-56
2019/08/11 07:27:07;;;;;;;7.79;3.29;;;;;;;22.72;55.90;100664.60;;;;-57
2019/08/11 07:30:07;;;;;;;7.09;3.34;;;;;;;22.73;55.76;100664.63;;;;-50
2019/08/11 07:33:07;;;;;;;8.70;3.48;;;;;;;22.73;55.88;100664.63;;;;-52
2019/08/11 07:36:07;;;;;;;6.43;2.89;;;;;;;22.74;56.05;100656.19;;;;-59
2019/08/11 07:39:06;;;;;;;7.31;3.33;;;;;;;22.76;56.12;100659.95;;;;-58
2019/08/11 07:42:07;;;;;;;5.72;2.93;;;;;;;22.78;56.15;100657.06;;;;-59
2019/08/11 07:45:07;;;;;;;6.44;2.98;;;;;;;22.79;56.16;100651.60;;;;-50
2019/08/11 07:48:07;;;;;;;7.13;3.24;;;;;;;22.80;56.14;100654.94;;;;-59
2019/08/11 07:51:07;;;;;;;6.60;3.32;;;;;;;22.81;56.14;100648.30;;;;-57
2019/08/11 07:54:06;;;;;;;7.37;3.34;;;;;;;22.82;56.17;100642.14;;;;-58
2019/08/11 07:57:07;;;;;;;6.11;3.08;;;;;;;22.86;56.28;100640.66;;;;-50
2019/08/11 08:00:06;;;;;;;7.08;3.07;;;;;;;22.87;56.30;100641.20;;;;-50
2019/08/11 08:03:07;;;;;;;10.68;3.55;;;;;;;22.88;56.42;100643.92;;;;-53
2019/08/11 08:06:07;;;;;;;12.53;3.17;;;;;;;22.89;56.58;100640.83;;;;-51
2019/08/11 08:09:06;;;;;;;8.76;3.11;;;;;;;22.91;56.64;100644.43;;;;-59
2019/08/11 08:12:06;;;;;;;8.91;3.19;;;;;;;22.92;56.64;100641.53;;;;-52
2019/08/11 08:15:06;;;;;;;9.07;3.18;;;;;;;22.92;56.60;100632.44;;;;-59
2019/08/11 08:18:07;;;;;;;8.03;2.84;;;;;;;22.94;56.58;100630.89;;;;-52
2019/08/11 08:21:07;;;;;;;5.78;2.89;;;;;;;22.95;56.59;100636.88;;;;-51
2019/08/11 08:24:07;;;;;;;8.91;2.97;;;;;;;22.95;56.60;100630.58;;;;-51
2019/08/11 08:27:06;;;;;;;9.25;3.03;;;;;;;22.96;56.58;100625.50;;;;-51
2019/08/11 08:30:07;;;;;;;6.06;2.99;;;;;;;22.98;56.57;100625.12;;;;-52
2019/08/11 08:33:07;;;;;;;8.47;2.84;;;;;;;22.97;56.59;100621.32;;;;-58
2019/08/11 08:36:07;;;;;;;5.70;2.93;;;;;;;22.98;56.57;100621.08;;;;-58
2019/08/11 08:39:07;;;;;;;5.95;2.93;;;;;;;22.99;56.58;100622.87;;;;-52
2019/08/11 08:42:07;;;;;;;4.46;2.65;;;;;;;22.99;56.58;100617.17;;;;-51
2019/08/11 08:45:07;;;;;;;8.33;3.21;;;;;;;23.00;56.79;100614.23;;;;-56
2019/08/11 08:48:07;;;;;;;6.27;2.95;;;;;;;23.03;56.84;100613.59;;;;-58
2019/08/11 08:51:07;;;;;;;6.99;2.89;;;;;;;23.05;56.96;100606.05;;;;-50
2019/08/11 08:54:07;;;;;;;10.41;2.95;;;;;;;23.07;57.45;100602.81;;;;-51
2019/08/11 08:57:07;;;;;;;11.14;3.28;;;;;;;23.10;57.64;100598.89;;;;-50
2019/08/11 09:00:07;;;;;;;6.62;2.65;;;;;;;23.11;57.74;100599.70;;;;-51
2019/08/11 09:03:07;;;;;;;8.82;2.89;;;;;;;23.14;57.81;100605.63;;;;-52
2019/08/11 09:06:07;;;;;;;8.82;2.83;;;;;;;23.16;57.95;100599.52;;;;-49
2019/08/11 09:09:07;;;;;;;6.19;2.69;;;;;;;23.17;57.93;100603.27;;;;-51
2019/08/11 09:12:07;;;;;;;9.29;2.97;;;;;;;23.19;57.99;100606.77;;;;-49
2019/08/11 09:15:07;;;;;;;10.72;3.00;;;;;;;23.21;58.23;100607.00;;;;-49
2019/08/11 09:18:07;;;;;;;6.61;3.15;;;;;;;23.23;58.09;100605.72;;;;-51
2019/08/11 09:21:07;;;;;;;9.48;2.80;;;;;;;23.24;58.21;100600.02;;;;-51
2019/08/11 09:24:07;;;;;;;6.14;2.69;;;;;;;23.26;58.33;100596.98;;;;-52
2019/08/11 09:27:07;;;;;;;9.13;2.83;;;;;;;23.27;58.13;100600.78;;;;-52
2019/08/11 09:30:07;;;;;;;10.88;3.14;;;;;;;23.27;58.62;100600.61;;;;-50
2019/08/11 09:33:07;;;;;;;7.09;3.27;;;;;;;23.29;58.45;100596.30;;;;-51
2019/08/11 09:36:06;;;;;;;8.25;3.03;;;;;;;23.32;58.41;100598.41;;;;-51
2019/08/11 09:39:07;;;;;;;9.64;3.28;;;;;;;23.34;58.44;100587.92;;;;-51
2019/08/11 09:42:07;;;;;;;13.69;3.13;;;;;;;23.35;58.38;100586.20;;;;-52
2019/08/11 09:45:07;;;;;;;7.09;2.71;;;;;;;23.37;58.30;100573.69;;;;-59
2019/08/11 09:48:06;;;;;;;6.59;3.11;;;;;;;23.38;58.31;100565.05;;;;-60
2019/08/11 09:51:07;;;;;;;9.97;2.98;;;;;;;23.39;58.38;100558.00;;;;-57
2019/08/11 09:54:07;;;;;;;8.87;2.83;;;;;;;23.40;58.23;100555.07;;;;-57
2019/08/11 09:57:07;;;;;;;7.73;2.90;;;;;;;23.41;58.33;100546.34;;;;-57
2019/08/11 10:00:07;;;;;;;8.83;2.97;;;;;;;23.42;58.35;100544.27;;;;-56
2019/08/11 10:03:07;;;;;;;6.47;2.69;;;;;;;23.43;58.32;100542.85;;;;-57
2019/08/11 10:06:07;;;;;;;8.63;2.86;;;;;;;23.44;58.33;100538.44;;;;-55
2019/08/11 10:09:06;;;;;;;10.79;2.71;;;;;;;23.46;58.29;100536.20;;;;-54
2019/08/11 10:12:07;;;;;;;7.37;2.71;;;;;;;23.46;58.30;100527.53;;;;-57
2019/08/11 10:15:07;;;;;;;9.00;3.10;;;;;;;23.46;58.40;100521.47;;;;-48
2019/08/11 10:18:06;;;;;;;24.57;4.25;;;;;;;23.46;58.45;100519.27;;;;-56
2019/08/11 10:21:07;;;;;;;21.99;4.12;;;;;;;23.48;58.44;100518.05;;;;-58
2019/08/11 10:24:06;;;;;;;13.50;3.43;;;;;;;23.47;58.42;100515.16;;;;-56
2019/08/11 10:27:06;;;;;;;15.59;3.60;;;;;;;23.47;58.36;100510.38;;;;-57
2019/08/11 10:30:07;;;;;;;13.89;3.21;;;;;;;23.49;58.26;100511.95;;;;-52
2019/08/11 10:33:07;;;;;;;11.94;3.20;;;;;;;23.50;58.18;100504.28;;;;-51
2019/08/11 10:36:07;;;;;;;10.33;3.00;;;;;;;23.51;58.21;100500.51;;;;-51
2019/08/11 10:39:07;;;;;;;11.22;3.32;;;;;;;23.51;58.02;100499.77;;;;-49
2019/08/11 10:42:07;;;;;;;8.51;3.13;;;;;;;23.50;58.10;100499.06;;;;-56
2019/08/11 10:45:07;;;;;;;10.20;3.18;;;;;;;23.51;57.62;100489.41;;;;-51
2019/08/11 10:48:07;;;;;;;19.56;3.25;;;;;;;23.53;57.99;100473.70;;;;-52
2019/08/11 10:51:07;;;;;;;12.20;2.95;;;;;;;23.53;58.04;100462.63;;;;-51
2019/08/11 10:54:07;;;;;;;10.31;3.21;;;;;;;23.53;58.06;100454.41;;;;-57
2019/08/11 10:57:07;;;;;;;14.05;3.22;;;;;;;23.54;58.00;100455.34;;;;-58
2019/08/11 11:00:06;;;;;;;9.75;3.10;;;;;;;23.55;58.00;100440.20;;;;-52
2019/08/11 11:03:07;;;;;;;10.00;3.07;;;;;;;23.55;57.98;100442.16;;;;-50
2019/08/11 11:06:07;;;;;;;11.29;2.97;;;;;;;23.56;57.95;100434.16;;;;-52
2019/08/11 11:09:07;;;;;;;9.35;3.04;;;;;;;23.57;57.92;100433.08;;;;-51
2019/08/11 11:12:07;;;;;;;11.69;2.97;;;;;;;23.58;57.95;100433.03;;;;-53
2019/08/11 11:15:06;;;;;;;9.87;2.98;;;;;;;23.58;57.96;100428.65;;;;-55
2019/08/11 11:18:07;;;;;;;10.07;2.69;;;;;;;23.59;57.92;100431.27;;;;-51
2019/08/11 11:21:07;;;;;;;9.35;2.99;;;;;;;23.59;57.96;100427.93;;;;-51
2019/08/11 11:24:06;;;;;;;10.31;2.84;;;;;;;23.58;57.79;100425.61;;;;-51
2019/08/11 11:27:07;;;;;;;13.45;3.03;;;;;;;23.57;57.87;100421.81;;;;-53
2019/08/11 11:30:07;;;;;;;8.98;2.89;;;;;;;23.57;57.90;100412.00;;;;-52
2019/08/11 11:33:07;;;;;;;7.23;2.85;;;;;;;23.57;57.90;100409.91;;;;-52
2019/08/11 11:36:07;;;;;;;6.41;2.84;;;;;;;23.56;57.84;100400.51;;;;-52
2019/08/11 11:39:07;;;;;;;8.02;2.93;;;;;;;23.55;57.83;100388.85;;;;-51
2019/08/11 11:42:40;;;;;;;7.69;2.70;;;;;;;23.55;57.70;100378.33;;;;-52
2019/08/11 11:45:07;;;;;;;9.19;2.71;;;;;;;23.54;57.74;100367.11;;;;-52
2019/08/11 11:48:06;;;;;;;8.43;2.78;;;;;;;23.54;57.68;100358.41;;;;-52
2019/08/11 11:51:07;;;;;;;5.77;2.73;;;;;;;23.54;57.64;100349.31;;;;-51
2019/08/11 11:54:07;;;;;;;4.89;2.58;;;;;;;23.53;57.62;100344.56;;;;-51
2019/08/11 11:57:08;;;;;;;6.92;2.55;;;;;;;23.53;57.63;100337.89;;;;-52
2019/08/11 12:00:07;;;;;;;8.85;2.82;;;;;;;23.51;57.68;100326.06;;;;-50
2019/08/11 12:03:07;;;;;;;6.28;2.63;;;;;;;23.53;57.70;100327.09;;;;-50
2019/08/11 12:06:07;;;;;;;5.99;2.51;;;;;;;23.55;57.73;100329.61;;;;-51
2019/08/11 12:09:07;;;;;;;7.27;2.58;;;;;;;23.56;57.72;100329.56;;;;-50
2019/08/11 12:12:07;;;;;;;7.69;2.52;;;;;;;23.58;57.75;100320.75;;;;-51
2019/08/11 12:15:07;;;;;;;8.38;2.65;;;;;;;23.57;57.73;100321.50;;;;-51
2019/08/11 12:18:07;;;;;;;8.69;2.58;;;;;;;23.59;57.74;100312.17;;;;-50
2019/08/11 12:21:07;;;;;;;5.18;2.51;;;;;;;23.60;57.76;100305.59;;;;-51
2019/08/11 12:24:07;;;;;;;7.07;2.45;;;;;;;23.60;57.81;100303.88;;;;-52
2019/08/11 12:27:07;;;;;;;7.33;2.71;;;;;;;23.62;57.77;100306.25;;;;-51
2019/08/11 12:30:07;;;;;;;4.19;2.41;;;;;;;23.61;57.83;100304.30;;;;-57
2019/08/11 12:33:07;;;;;;;6.69;2.49;;;;;;;23.62;57.81;100308.86;;;;-51
2019/08/11 12:36:07;;;;;;;6.53;2.59;;;;;;;23.63;57.85;100309.31;;;;-52
2019/08/11 12:39:07;;;;;;;7.49;2.41;;;;;;;23.64;57.93;100304.19;;;;-50
2019/08/11 12:42:07;;;;;;;3.60;2.35;;;;;;;23.64;57.89;100301.28;;;;-50
2019/08/11 12:45:07;;;;;;;8.79;2.55;;;;;;;23.65;57.89;100297.46;;;;-49
2019/08/11 12:48:07;;;;;;;5.76;2.41;;;;;;;23.65;57.88;100287.45;;;;-56
2019/08/11 12:51:07;;;;;;;8.33;2.54;;;;;;;23.63;57.87;100281.16;;;;-51
2019/08/11 12:54:07;;;;;;;3.99;2.28;;;;;;;23.64;57.95;100289.88;;;;-52
2019/08/11 12:57:07;;;;;;;6.90;2.20;;;;;;;23.65;57.93;100290.58;;;;-51
2019/08/11 13:00:07;;;;;;;5.83;2.32;;;;;;;23.64;57.99;100287.28;;;;-50
2019/08/11 13:03:07;;;;;;;6.45;2.81;;;;;;;23.65;57.98;100277.86;;;;-58
2019/08/11 13:06:07;;;;;;;6.54;2.45;;;;;;;23.66;57.92;100271.12;;;;-59
2019/08/11 13:09:07;;;;;;;8.08;2.47;;;;;;;23.67;58.00;100263.05;;;;-58
2019/08/11 13:12:07;;;;;;;9.37;2.67;;;;;;;23.68;58.10;100248.40;;;;-58
2019/08/11 13:15:07;;;;;;;7.03;2.63;;;;;;;23.69;58.07;100232.98;;;;-59
2019/08/11 13:18:07;;;;;;;9.00;2.53;;;;;;;23.69;58.00;100232.58;;;;-60
2019/08/11 13:21:07;;;;;;;5.89;2.53;;;;;;;23.70;58.04;100225.08;;;;-56
2019/08/11 13:24:07;;;;;;;5.09;2.37;;;;;;;23.69;58.00;100219.86;;;;-57
2019/08/11 13:27:07;;;;;;;5.31;2.53;;;;;;;23.71;58.02;100211.04;;;;-50
2019/08/11 13:30:07;;;;;;;6.53;2.51;;;;;;;23.72;58.03;100224.22;;;;-51
2019/08/11 13:33:07;;;;;;;6.57;2.66;;;;;;;23.73;58.09;100232.33;;;;-50
2019/08/11 13:36:07;;;;;;;6.00;2.23;;;;;;;23.73;58.06;100235.47;;;;-50
2019/08/11 13:39:07;;;;;;;7.05;2.68;;;;;;;23.72;58.03;100239.73;;;;-50
2019/08/11 13:42:07;;;;;;;6.94;2.43;;;;;;;23.72;58.00;100244.11;;;;-51
2019/08/11 13:45:07;;;;;;;6.73;2.57;;;;;;;23.72;57.96;100242.59;;;;-52
2019/08/11 13:48:07;;;;;;;9.47;2.53;;;;;;;23.73;58.04;100241.95;;;;-49
2019/08/11 13:51:07;;;;;;;9.28;2.63;;;;;;;23.74;57.98;100250.13;;;;-48
2019/08/11 13:54:07;;;;;;;6.25;2.56;;;;;;;23.74;58.18;100258.90;;;;-49
2019/08/11 13:57:07;;;;;;;11.45;2.41;;;;;;;23.72;58.15;100250.45;;;;-52
2019/08/11 14:00:07;;;;;;;8.79;2.42;;;;;;;23.72;57.99;100243.70;;;;-52
2019/08/11 14:03:07;;;;;;;10.69;2.83;;;;;;;23.72;57.95;100225.66;;;;-51
2019/08/11 14:06:07;;;;;;;7.43;2.55;;;;;;;23.72;57.95;100163.34;;;;-51
2019/08/11 14:09:07;;;;;;;6.17;2.73;;;;;;;23.72;57.91;100128.87;;;;-51
2019/08/11 14:12:07;;;;;;;7.95;2.55;;;;;;;23.72;57.89;100163.78;;;;-50
2019/08/11 14:15:07;;;;;;;10.11;2.49;;;;;;;23.71;57.88;100164.84;;;;-50
2019/08/11 14:18:07;;;;;;;10.13;2.43;;;;;;;23.72;57.84;100157.71;;;;-50
2019/08/11 14:21:07;;;;;;;9.20;2.58;;;;;;;23.71;57.79;100141.33;;;;-50
2019/08/11 14:24:07;;;;;;;8.65;2.63;;;;;;;23.73;57.87;100135.37;;;;-50
2019/08/11 14:27:07;;;;;;;10.27;2.40;;;;;;;23.75;57.90;100153.03;;;;-51
2019/08/11 14:30:07;;;;;;;7.25;2.42;;;;;;;23.76;57.84;100146.47;;;;-51
2019/08/11 14:33:07;;;;;;;7.38;2.56;;;;;;;23.77;57.84;100134.86;;;;-58
2019/08/11 14:36:07;;;;;;;8.97;2.61;;;;;;;23.75;57.68;100141.72;;;;-59
2019/08/11 14:39:07;;;;;;;6.51;2.32;;;;;;;23.74;57.79;100142.81;;;;-59
2019/08/11 14:42:07;;;;;;;7.83;2.60;;;;;;;23.74;57.82;100140.29;;;;-59
2019/08/11 14:45:07;;;;;;;7.21;2.27;;;;;;;23.73;57.81;100149.61;;;;-59
2019/08/11 14:48:07;;;;;;;5.52;2.38;;;;;;;23.72;57.75;100143.45;;;;-59
2019/08/11 14:51:07;;;;;;;7.49;2.42;;;;;;;23.71;57.70;100133.14;;;;-58
2019/08/11 14:54:07;;;;;;;5.15;2.13;;;;;;;23.71;57.72;100125.98;;;;-59
2019/08/11 14:57:07;;;;;;;6.43;2.14;;;;;;;23.71;57.70;100140.62;;;;-58
2019/08/11 15:00:07;;;;;;;5.58;2.42;;;;;;;23.71;57.66;100154.05;;;;-58
2019/08/11 15:03:07;;;;;;;5.63;2.19;;;;;;;23.70;57.69;100165.76;;;;-59
2019/08/11 15:06:07;;;;;;;4.31;2.46;;;;;;;23.70;57.67;100172.73;;;;-59
2019/08/11 15:09:07;;;;;;;7.14;2.43;;;;;;;23.69;57.68;100179.13;;;;-59
2019/08/11 15:12:07;;;;;;;6.86;2.33;;;;;;;23.68;57.64;100168.48;;;;-59
2019/08/11 15:15:07;;;;;;;10.31;2.52;;;;;;;23.68;57.84;100172.87;;;;-57
2019/08/11 15:18:07;;;;;;;5.49;2.35;;;;;;;23.68;57.76;100174.55;;;;-57
2019/08/11 15:21:07;;;;;;;5.57;2.23;;;;;;;23.70;57.81;100181.00;;;;-57
2019/08/11 15:24:07;;;;;;;11.22;2.34;;;;;;;23.71;57.89;100187.27;;;;-56
2019/08/11 15:27:07;;;;;;;7.81;2.41;;;;;;;23.73;57.74;100197.09;;;;-50
2019/08/11 15:30:07;;;;;;;7.87;2.45;;;;;;;23.75;57.91;100213.90;;;;-50
2019/08/11 15:33:07;;;;;;;11.95;2.33;;;;;;;23.76;57.93;100224.98;;;;-49
2019/08/11 15:36:07;;;;;;;8.02;2.27;;;;;;;23.76;57.93;100238.20;;;;-51
2019/08/11 15:39:07;;;;;;;8.64;2.33;;;;;;;23.76;57.92;100205.42;;;;-52
2019/08/11 15:42:07;;;;;;;4.13;2.16;;;;;;;23.77;57.99;100220.19;;;;-51
2019/08/11 15:45:07;;;;;;;4.98;2.35;;;;;;;23.78;57.97;100253.97;;;;-49
2019/08/11 15:48:07;;;;;;;10.73;2.29;;;;;;;23.79;58.09;100270.63;;;;-51
2019/08/11 15:51:07;;;;;;;7.61;2.44;;;;;;;23.80;58.06;100281.10;;;;-50
2019/08/11 15:54:07;;;;;;;7.10;2.31;;;;;;;23.80;58.04;100260.35;;;;-50
2019/08/11 15:57:07;;;;;;;3.47;2.30;;;;;;;23.81;58.14;100237.28;;;;-49
2019/08/11 16:00:07;;;;;;;3.93;2.11;;;;;;;23.81;58.09;100242.67;;;;-59
2019/08/11 16:03:07;;;;;;;3.27;2.13;;;;;;;23.82;58.07;100235.92;;;;-56
2019/08/11 16:06:07;;;;;;;6.31;2.20;;;;;;;23.82;58.09;100187.85;;;;-58
2019/08/11 16:09:07;;;;;;;6.06;2.37;;;;;;;23.82;58.09;100171.02;;;;-57
2019/08/11 16:12:07;;;;;;;7.17;2.13;;;;;;;23.83;58.04;100180.38;;;;-54
2019/08/11 16:15:07;;;;;;;5.73;2.19;;;;;;;23.83;58.15;100192.13;;;;-53
2019/08/11 16:18:07;;;;;;;5.41;2.07;;;;;;;23.83;58.07;100192.09;;;;-53
2019/08/11 16:21:07;;;;;;;4.12;2.13;;;;;;;23.83;58.06;100202.98;;;;-53
2019/08/11 16:24:07;;;;;;;4.17;2.13;;;;;;;23.83;58.00;100224.57;;;;-59
2019/08/11 16:27:07;;;;;;;5.90;2.26;;;;;;;23.82;58.02;100236.62;;;;-60
2019/08/11 16:33:07;;;;;;;4.93;1.88;;;;;;;23.83;58.17;100262.69;;;;-47
2019/08/11 16:36:07;;;;;;;7.76;2.19;;;;;;;23.83;57.97;100289.67;;;;-51
2019/08/11 16:42:07;;;;;;;3.35;2.01;;;;;;;23.85;58.06;100335.09;;;;-51
2019/08/11 16:45:07;;;;;;;7.85;1.97;;;;;;;23.85;58.03;100333.06;;;;-50